sensor_id;sensor_type;location;lat;lon;timestamp;pressure;altitude;pressure_sealevel;temperature;humidity
55679;BME280;41573;51.446;-2.018;2022-08-16T00:00:58;99670.81;;;18.32;100.00
55679;BME280;41573;51.446;-2.018;2022-08-16T00:03:23;99659.16;;;18.32;100.00
55679;BME280;41573;51.446;-2.018;2022-08-16T00:05:49;99662.88;;;18.31;100.00
55679;BME280;41573;51.446;-2.018;2022-08-16T00:08:15;99655.81;;;18.30;100.00
55679;BME280;41573;51.446;-2.018;2022-08-16T00:10:41;99661.72;;;18.25;100.00
55679;BME280;41573;51.446;-2.018;2022-08-16T00:13:08;99662.34;;;18.19;100.00
55679;BME280;41573;51.446;-2.018;2022-08-16T00:15:44;99666.69;;;18.12;100.00
55679;BME280;41573;51.446;-2.018;2022-08-16T00:18:10;99662.66;;;18.07;100.00
55679;BME280;41573;51.446;-2.018;2022-08-16T00:20:37;99667.25;;;17.89;100.00
55679;BME280;41573;51.446;-2.018;2022-08-16T00:23:03;99669.75;;;17.74;100.00
55679;BME280;41573;51.446;-2.018;2022-08-16T00:25:29;99667.56;;;17.78;100.00
55679;BME280;41573;51.446;-2.018;2022-08-16T00:27:55;99670.44;;;17.84;100.00
55679;BME280;41573;51.446;-2.018;2022-08-16T00:30:21;99664.53;;;17.81;100.00
55679;BME280;41573;51.446;-2.018;2022-08-16T00:32:50;99665.34;;;17.73;100.00
55679;BME280;41573;51.446;-2.018;2022-08-16T00:35:21;99660.03;;;17.55;100.00
55679;BME280;41573;51.446;-2.018;2022-08-16T00:37:47;99662.34;;;17.42;100.00
55679;BME280;41573;51.446;-2.018;2022-08-16T00:40:17;99662.94;;;17.27;100.00
55679;BME280;41573;51.446;-2.018;2022-08-16T00:42:43;99665.88;;;17.16;100.00
55679;BME280;41573;51.446;-2.018;2022-08-16T00:48:04;99662.66;;;16.94;100.00
55679;BME280;41573;51.446;-2.018;2022-08-16T00:50:31;99668.38;;;16.91;100.00
55679;BME280;41573;51.446;-2.018;2022-08-16T00:52:57;99671.06;;;16.91;100.00
55679;BME280;41573;51.446;-2.018;2022-08-16T00:55:24;99663.69;;;16.93;100.00
55679;BME280;41573;51.446;-2.018;2022-08-16T00:57:52;99665.34;;;16.94;100.00
55679;BME280;41573;51.446;-2.018;2022-08-16T01:00:18;99673.41;;;16.94;100.00
55679;BME280;41573;51.446;-2.018;2022-08-16T01:02:44;99667.38;;;16.92;100.00
55679;BME280;41573;51.446;-2.018;2022-08-16T01:05:10;99673.59;;;16.93;100.00
55679;BME280;41573;51.446;-2.018;2022-08-16T01:07:36;99674.81;;;16.98;100.00
55679;BME280;41573;51.446;-2.018;2022-08-16T01:10:02;99674.72;;;17.08;100.00
55679;BME280;41573;51.446;-2.018;2022-08-16T01:12:28;99675.47;;;17.18;100.00
55679;BME280;41573;51.446;-2.018;2022-08-16T01:14:56;99666.28;;;17.29;100.00
55679;BME280;41573;51.446;-2.018;2022-08-16T01:17:23;99656.56;;;17.36;100.00
55679;BME280;41573;51.446;-2.018;2022-08-16T01:19:53;99646.50;;;17.38;100.00
55679;BME280;41573;51.446;-2.018;2022-08-16T01:25:11;99641.00;;;17.22;100.00
55679;BME280;41573;51.446;-2.018;2022-08-16T01:27:47;99641.28;;;17.11;100.00
55679;BME280;41573;51.446;-2.018;2022-08-16T01:30:17;99646.09;;;16.99;100.00
55679;BME280;41573;51.446;-2.018;2022-08-16T01:32:43;99651.22;;;16.92;100.00
55679;BME280;41573;51.446;-2.018;2022-08-16T01:35:17;99657.91;;;16.88;100.00
55679;BME280;41573;51.446;-2.018;2022-08-16T01:37:50;99659.03;;;16.85;100.00
55679;BME280;41573;51.446;-2.018;2022-08-16T01:40:18;99655.38;;;16.86;100.00
55679;BME280;41573;51.446;-2.018;2022-08-16T01:42:46;99651.69;;;16.87;100.00
55679;BME280;41573;51.446;-2.018;2022-08-16T01:45:13;99651.69;;;16.87;100.00
55679;BME280;41573;51.446;-2.018;2022-08-16T01:47:39;99651.84;;;16.86;100.00
55679;BME280;41573;51.446;-2.018;2022-08-16T01:50:06;99657.38;;;16.84;100.00
55679;BME280;41573;51.446;-2.018;2022-08-16T01:52:33;99647.78;;;16.82;100.00
55679;BME280;41573;51.446;-2.018;2022-08-16T01:55:00;99657.78;;;16.71;100.00
55679;BME280;41573;51.446;-2.018;2022-08-16T01:57:26;99655.69;;;16.65;100.00
55679;BME280;41573;51.446;-2.018;2022-08-16T01:59:52;99670.34;;;16.71;100.00
55679;BME280;41573;51.446;-2.018;2022-08-16T02:02:18;99674.66;;;16.82;100.00
55679;BME280;41573;51.446;-2.018;2022-08-16T02:04:43;99677.44;;;16.90;100.00
55679;BME280;41573;51.446;-2.018;2022-08-16T02:07:09;99676.66;;;16.98;100.00
55679;BME280;41573;51.446;-2.018;2022-08-16T02:09:36;99684.97;;;17.04;100.00
55679;BME280;41573;51.446;-2.018;2022-08-16T02:12:03;99687.16;;;17.09;100.00
55679;BME280;41573;51.446;-2.018;2022-08-16T02:14:31;99692.06;;;17.14;100.00
55679;BME280;41573;51.446;-2.018;2022-08-16T02:17:01;99697.84;;;17.19;100.00
55679;BME280;41573;51.446;-2.018;2022-08-16T02:19:29;99693.84;;;17.23;100.00
55679;BME280;41573;51.446;-2.018;2022-08-16T02:21:56;99688.97;;;17.27;100.00
55679;BME280;41573;51.446;-2.018;2022-08-16T02:24:23;99687.50;;;17.32;100.00
55679;BME280;41573;51.446;-2.018;2022-08-16T02:26:48;99693.09;;;17.39;100.00
55679;BME280;41573;51.446;-2.018;2022-08-16T02:29:15;99689.09;;;17.43;100.00
55679;BME280;41573;51.446;-2.018;2022-08-16T02:31:43;99694.97;;;17.47;100.00
55679;BME280;41573;51.446;-2.018;2022-08-16T02:34:09;99683.91;;;17.50;100.00
55679;BME280;41573;51.446;-2.018;2022-08-16T02:36:35;99687.97;;;17.54;100.00
55679;BME280;41573;51.446;-2.018;2022-08-16T02:39:00;99690.50;;;17.55;100.00
55679;BME280;41573;51.446;-2.018;2022-08-16T02:41:26;99689.66;;;17.55;100.00
55679;BME280;41573;51.446;-2.018;2022-08-16T02:43:51;99689.66;;;17.55;100.00
55679;BME280;41573;51.446;-2.018;2022-08-16T02:46:17;99688.97;;;17.53;100.00
55679;BME280;41573;51.446;-2.018;2022-08-16T02:48:42;99694.38;;;17.53;100.00
55679;BME280;41573;51.446;-2.018;2022-08-16T02:51:09;99698.06;;;17.52;100.00
55679;BME280;41573;51.446;-2.018;2022-08-16T02:53:38;99700.75;;;17.52;100.00
55679;BME280;41573;51.446;-2.018;2022-08-16T02:56:04;99701.75;;;17.51;100.00
55679;BME280;41573;51.446;-2.018;2022-08-16T02:58:30;99707.13;;;17.51;100.00
55679;BME280;41573;51.446;-2.018;2022-08-16T03:00:57;99704.44;;;17.51;100.00
55679;BME280;41573;51.446;-2.018;2022-08-16T03:03:24;99705.44;;;17.50;100.00
55679;BME280;41573;51.446;-2.018;2022-08-16T03:05:50;99704.59;;;17.49;100.00
55679;BME280;41573;51.446;-2.018;2022-08-16T03:08:17;99700.91;;;17.50;100.00
55679;BME280;41573;51.446;-2.018;2022-08-16T03:10:42;99696.34;;;17.51;100.00
55679;BME280;41573;51.446;-2.018;2022-08-16T03:13:08;99698.88;;;17.52;100.00
55679;BME280;41573;51.446;-2.018;2022-08-16T03:15:34;99694.38;;;17.53;100.00
55679;BME280;41573;51.446;-2.018;2022-08-16T03:17:59;99687.28;;;17.52;100.00
55679;BME280;41573;51.446;-2.018;2022-08-16T03:20:26;99687.38;;;17.42;100.00
55679;BME280;41573;51.446;-2.018;2022-08-16T03:22:51;99677.44;;;17.34;100.00
55679;BME280;41573;51.446;-2.018;2022-08-16T03:25:16;99677.06;;;17.29;100.00
55679;BME280;41573;51.446;-2.018;2022-08-16T03:27:42;99674.69;;;17.26;100.00
55679;BME280;41573;51.446;-2.018;2022-08-16T03:30:13;99667.59;;;17.25;100.00
55679;BME280;41573;51.446;-2.018;2022-08-16T03:32:39;99654.47;;;17.22;100.00
55679;BME280;41573;51.446;-2.018;2022-08-16T03:35:05;99656.16;;;17.23;100.00
55679;BME280;41573;51.446;-2.018;2022-08-16T03:37:32;99659.53;;;17.25;100.00
55679;BME280;41573;51.446;-2.018;2022-08-16T03:39:57;99657.53;;;17.27;100.00
55679;BME280;41573;51.446;-2.018;2022-08-16T03:42:24;99658.22;;;17.29;100.00
55679;BME280;41573;51.446;-2.018;2022-08-16T03:44:50;99658.22;;;17.29;100.00
55679;BME280;41573;51.446;-2.018;2022-08-16T03:47:16;99650.25;;;17.19;100.00
55679;BME280;41573;51.446;-2.018;2022-08-16T03:49:42;99645.34;;;17.15;100.00
55679;BME280;41573;51.446;-2.018;2022-08-16T03:52:08;99647.50;;;17.11;100.00
55679;BME280;41573;51.446;-2.018;2022-08-16T03:54:33;99646.97;;;17.08;100.00
55679;BME280;41573;51.446;-2.018;2022-08-16T03:57:00;99652.38;;;17.08;100.00
55679;BME280;41573;51.446;-2.018;2022-08-16T03:59:25;99655.88;;;17.08;100.00
55679;BME280;41573;51.446;-2.018;2022-08-16T04:01:51;99656.44;;;17.12;100.00
55679;BME280;41573;51.446;-2.018;2022-08-16T04:04:16;99648.34;;;17.12;100.00
55679;BME280;41573;51.446;-2.018;2022-08-16T04:06:42;99656.75;;;17.09;100.00
55679;BME280;41573;51.446;-2.018;2022-08-16T04:09:07;99658.06;;;17.04;100.00
55679;BME280;41573;51.446;-2.018;2022-08-16T04:11:34;99661.75;;;17.03;100.00
55679;BME280;41573;51.446;-2.018;2022-08-16T04:13:59;99653.13;;;17.00;100.00
55679;BME280;41573;51.446;-2.018;2022-08-16T04:16:25;99657.50;;;17.01;100.00
55679;BME280;41573;51.446;-2.018;2022-08-16T04:18:50;99665.59;;;17.01;100.00
55679;BME280;41573;51.446;-2.018;2022-08-16T04:21:15;99658.66;;;16.98;100.00
55679;BME280;41573;51.446;-2.018;2022-08-16T04:23:41;99654.59;;;16.94;100.00
55679;BME280;41573;51.446;-2.018;2022-08-16T04:26:07;99662.81;;;16.93;100.00
55679;BME280;41573;51.446;-2.018;2022-08-16T04:28:32;99656.63;;;16.92;100.00
55679;BME280;41573;51.446;-2.018;2022-08-16T04:30:58;99660.59;;;16.88;100.00
55679;BME280;41573;51.446;-2.018;2022-08-16T04:33:23;99659.34;;;16.82;100.00
55679;BME280;41573;51.446;-2.018;2022-08-16T04:35:50;99655.84;;;16.82;100.00
55679;BME280;41573;51.446;-2.018;2022-08-16T04:38:16;99656.00;;;16.80;100.00
55679;BME280;41573;51.446;-2.018;2022-08-16T04:40:44;99662.38;;;16.79;100.00
55679;BME280;41573;51.446;-2.018;2022-08-16T04:43:10;99659.50;;;16.81;100.00
55679;BME280;41573;51.446;-2.018;2022-08-16T04:45:35;99671.81;;;16.83;100.00
55679;BME280;41573;51.446;-2.018;2022-08-16T04:48:01;99673.78;;;16.81;100.00
55679;BME280;41573;51.446;-2.018;2022-08-16T04:50:26;99677.03;;;16.85;100.00
55679;BME280;41573;51.446;-2.018;2022-08-16T04:52:52;99684.81;;;16.88;100.00
55679;BME280;41573;51.446;-2.018;2022-08-16T04:55:21;99682.84;;;16.90;100.00
55679;BME280;41573;51.446;-2.018;2022-08-16T04:57:49;99688.72;;;16.94;100.00
55679;BME280;41573;51.446;-2.018;2022-08-16T05:00:19;99686.19;;;16.92;100.00
55679;BME280;41573;51.446;-2.018;2022-08-16T05:02:49;99686.50;;;16.89;100.00
55679;BME280;41573;51.446;-2.018;2022-08-16T05:05:15;99692.19;;;16.86;100.00
55679;BME280;41573;51.446;-2.018;2022-08-16T05:07:41;99690.47;;;16.85;100.00
55679;BME280;41573;51.446;-2.018;2022-08-16T05:10:08;99697.72;;;16.84;100.00
55679;BME280;41573;51.446;-2.018;2022-08-16T05:12:35;99696.00;;;16.83;100.00
55679;BME280;41573;51.446;-2.018;2022-08-16T05:15:01;99700.56;;;16.83;100.00
55679;BME280;41573;51.446;-2.018;2022-08-16T05:17:27;99698.84;;;16.82;100.00
55679;BME280;41573;51.446;-2.018;2022-08-16T05:19:53;99706.75;;;16.83;100.00
55679;BME280;41573;51.446;-2.018;2022-08-16T05:22:18;99703.38;;;16.81;100.00
55679;BME280;41573;51.446;-2.018;2022-08-16T05:24:44;99708.75;;;16.81;100.00
55679;BME280;41573;51.446;-2.018;2022-08-16T05:27:09;99708.63;;;16.83;100.00
55679;BME280;41573;51.446;-2.018;2022-08-16T05:29:35;99711.59;;;16.80;100.00
55679;BME280;41573;51.446;-2.018;2022-08-16T05:32:01;99716.97;;;16.80;100.00
55679;BME280;41573;51.446;-2.018;2022-08-16T05:34:27;99714.28;;;16.80;100.00
55679;BME280;41573;51.446;-2.018;2022-08-16T05:36:53;99719.66;;;16.80;100.00
55679;BME280;41573;51.446;-2.018;2022-08-16T05:39:22;99728.75;;;16.79;100.00
55679;BME280;41573;51.446;-2.018;2022-08-16T05:41:49;99740.34;;;16.79;100.00
55679;BME280;41573;51.446;-2.018;2022-08-16T05:44:15;99743.69;;;16.81;100.00
55679;BME280;41573;51.446;-2.018;2022-08-16T05:46:41;99738.19;;;16.83;100.00
55679;BME280;41573;51.446;-2.018;2022-08-16T05:49:09;99753.88;;;16.87;100.00
55679;BME280;41573;51.446;-2.018;2022-08-16T05:51:35;99742.00;;;16.90;100.00
55679;BME280;41573;51.446;-2.018;2022-08-16T05:54:01;99741.53;;;16.95;100.00
55679;BME280;41573;51.446;-2.018;2022-08-16T05:56:26;99749.44;;;16.96;100.00
55679;BME280;41573;51.446;-2.018;2022-08-16T05:58:52;99745.75;;;16.97;100.00
55679;BME280;41573;51.446;-2.018;2022-08-16T06:01:17;99748.44;;;16.97;100.00
55679;BME280;41573;51.446;-2.018;2022-08-16T06:03:42;99752.44;;;16.93;100.00
55679;BME280;41573;51.446;-2.018;2022-08-16T06:06:08;99747.06;;;16.93;100.00
55679;BME280;41573;51.446;-2.018;2022-08-16T06:08:33;99755.97;;;16.94;100.00
55679;BME280;41573;51.446;-2.018;2022-08-16T06:10:59;99751.56;;;16.93;100.00
55679;BME280;41573;51.446;-2.018;2022-08-16T06:13:24;99751.56;;;16.93;100.00
55679;BME280;41573;51.446;-2.018;2022-08-16T06:15:49;99757.09;;;16.91;100.00
55679;BME280;41573;51.446;-2.018;2022-08-16T06:18:16;99759.78;;;16.91;100.00
55679;BME280;41573;51.446;-2.018;2022-08-16T06:20:43;99759.78;;;16.91;100.00
55679;BME280;41573;51.446;-2.018;2022-08-16T06:23:08;99761.81;;;16.89;100.00
55679;BME280;41573;51.446;-2.018;2022-08-16T06:25:33;99770.72;;;16.89;100.00
55679;BME280;41573;51.446;-2.018;2022-08-16T06:27:59;99775.94;;;16.91;100.00
55679;BME280;41573;51.446;-2.018;2022-08-16T06:30:24;99776.78;;;16.92;100.00
55679;BME280;41573;51.446;-2.018;2022-08-16T06:32:50;99781.00;;;16.94;100.00
55679;BME280;41573;51.446;-2.018;2022-08-16T06:35:16;99785.22;;;16.97;100.00
55679;BME280;41573;51.446;-2.018;2022-08-16T06:37:41;99788.47;;;17.00;100.00
55679;BME280;41573;51.446;-2.018;2022-08-16T06:40:08;99787.47;;;17.01;100.00
55679;BME280;41573;51.446;-2.018;2022-08-16T06:42:34;99788.84;;;17.05;100.00
55679;BME280;41573;51.446;-2.018;2022-08-16T06:44:59;99799.59;;;17.05;100.00
55679;BME280;41573;51.446;-2.018;2022-08-16T06:47:25;99796.91;;;17.05;100.00
55679;BME280;41573;51.446;-2.018;2022-08-16T06:49:50;99795.41;;;17.03;100.00
55679;BME280;41573;51.446;-2.018;2022-08-16T06:52:16;99791.16;;;17.00;100.00
55679;BME280;41573;51.446;-2.018;2022-08-16T06:54:41;99789.78;;;16.96;100.00
55679;BME280;41573;51.446;-2.018;2022-08-16T06:57:07;99794.44;;;16.94;100.00
55679;BME280;41573;51.446;-2.018;2022-08-16T06:59:35;99803.38;;;16.95;100.00
55679;BME280;41573;51.446;-2.018;2022-08-16T07:02:00;99796.47;;;16.92;100.00
55679;BME280;41573;51.446;-2.018;2022-08-16T07:04:26;99801.84;;;16.92;100.00
55679;BME280;41573;51.446;-2.018;2022-08-16T07:06:52;99810.59;;;16.94;100.00
55679;BME280;41573;51.446;-2.018;2022-08-16T07:09:18;99816.81;;;16.95;100.00
55679;BME280;41573;51.446;-2.018;2022-08-16T07:11:43;99814.13;;;16.95;100.00
55679;BME280;41573;51.446;-2.018;2022-08-16T07:14:09;99827.13;;;16.99;100.00
55679;BME280;41573;51.446;-2.018;2022-08-16T07:16:34;99825.13;;;17.01;100.00
55679;BME280;41573;51.446;-2.018;2022-08-16T07:19:00;99820.59;;;17.02;100.00
55679;BME280;41573;51.446;-2.018;2022-08-16T07:21:25;99837.25;;;17.05;100.00
55679;BME280;41573;51.446;-2.018;2022-08-16T07:23:51;99839.66;;;17.09;100.00
55679;BME280;41573;51.446;-2.018;2022-08-16T07:26:24;99844.03;;;17.10;100.00
55679;BME280;41573;51.446;-2.018;2022-08-16T07:28:51;99829.06;;;17.07;100.00
55679;BME280;41573;51.446;-2.018;2022-08-16T07:31:18;99836.25;;;17.06;100.00
55679;BME280;41573;51.446;-2.018;2022-08-16T07:33:44;99844.66;;;17.03;100.00
55679;BME280;41573;51.446;-2.018;2022-08-16T07:36:11;99834.88;;;17.02;100.00
55679;BME280;41573;51.446;-2.018;2022-08-16T07:38:37;99841.81;;;17.05;100.00
55679;BME280;41573;51.446;-2.018;2022-08-16T07:41:04;99847.91;;;17.07;100.00
55679;BME280;41573;51.446;-2.018;2022-08-16T07:43:30;99850.44;;;17.09;100.00
55679;BME280;41573;51.446;-2.018;2022-08-16T07:45:56;99854.50;;;17.13;100.00
55679;BME280;41573;51.446;-2.018;2022-08-16T07:48:21;99850.78;;;17.14;100.00
55679;BME280;41573;51.446;-2.018;2022-08-16T07:50:47;99849.13;;;17.13;100.00
55679;BME280;41573;51.446;-2.018;2022-08-16T07:53:12;99858.72;;;17.15;100.00
55679;BME280;41573;51.446;-2.018;2022-08-16T07:55:38;99851.50;;;17.16;100.00
55679;BME280;41573;51.446;-2.018;2022-08-16T07:58:04;99847.50;;;17.20;100.00
55679;BME280;41573;51.446;-2.018;2022-08-16T08:00:31;99858.78;;;17.23;100.00
55679;BME280;41573;51.446;-2.018;2022-08-16T08:02:57;99856.50;;;17.29;100.00
55679;BME280;41573;51.446;-2.018;2022-08-16T08:05:24;99861.09;;;17.36;100.00
55679;BME280;41573;51.446;-2.018;2022-08-16T08:07:50;99861.34;;;17.43;100.00
55679;BME280;41573;51.446;-2.018;2022-08-16T08:10:18;99859.88;;;17.49;100.00
55679;BME280;41573;51.446;-2.018;2022-08-16T08:12:43;99856.88;;;17.52;100.00
55679;BME280;41573;51.446;-2.018;2022-08-16T08:15:11;99859.78;;;17.58;100.00
55679;BME280;41573;51.446;-2.018;2022-08-16T08:17:37;99864.53;;;17.65;100.00
55679;BME280;41573;51.446;-2.018;2022-08-16T08:20:09;99858.00;;;17.67;100.00
55679;BME280;41573;51.446;-2.018;2022-08-16T08:22:35;99858.00;;;17.67;100.00
55679;BME280;41573;51.446;-2.018;2022-08-16T08:25:01;99860.94;;;17.74;100.00
55679;BME280;41573;51.446;-2.018;2022-08-16T08:27:27;99864.84;;;17.80;100.00
55679;BME280;41573;51.446;-2.018;2022-08-16T08:29:52;99860.13;;;17.82;100.00
55679;BME280;41573;51.446;-2.018;2022-08-16T08:32:18;99870.25;;;17.88;100.00
55679;BME280;41573;51.446;-2.018;2022-08-16T08:34:46;99866.56;;;17.89;100.00
55679;BME280;41573;51.446;-2.018;2022-08-16T08:37:11;99862.59;;;17.93;100.00
55679;BME280;41573;51.446;-2.018;2022-08-16T08:39:37;99863.16;;;17.97;100.00
55679;BME280;41573;51.446;-2.018;2022-08-16T08:42:03;99865.84;;;17.97;100.00
55679;BME280;41573;51.446;-2.018;2022-08-16T08:44:29;99863.97;;;17.97;100.00
55679;BME280;41573;51.446;-2.018;2022-08-16T08:47:00;99863.66;;;18.00;100.00
55679;BME280;41573;51.446;-2.018;2022-08-16T08:49:26;99868.06;;;18.01;100.00
55679;BME280;41573;51.446;-2.018;2022-08-16T08:51:51;99867.72;;;18.04;100.00
55679;BME280;41573;51.446;-2.018;2022-08-16T08:54:17;99874.66;;;18.07;100.00
55679;BME280;41573;51.446;-2.018;2022-08-16T08:56:42;99872.78;;;18.07;100.00
55679;BME280;41573;51.446;-2.018;2022-08-16T08:59:09;99873.50;;;18.09;100.00
55679;BME280;41573;51.446;-2.018;2022-08-16T09:01:35;99871.47;;;18.12;100.00
55679;BME280;41573;51.446;-2.018;2022-08-16T09:04:03;99872.84;;;18.16;100.00
55679;BME280;41573;51.446;-2.018;2022-08-16T09:06:29;99870.81;;;18.18;100.00
55679;BME280;41573;51.446;-2.018;2022-08-16T09:08:58;99874.91;;;18.22;100.00
55679;BME280;41573;51.446;-2.018;2022-08-16T09:11:24;99873.91;;;18.23;100.00
55679;BME280;41573;51.446;-2.018;2022-08-16T09:13:50;99877.31;;;18.25;100.00
55679;BME280;41573;51.446;-2.018;2022-08-16T09:16:16;99877.31;;;18.25;100.00
55679;BME280;41573;51.446;-2.018;2022-08-16T09:18:43;99883.03;;;18.30;100.00
55679;BME280;41573;51.446;-2.018;2022-08-16T09:21:09;99885.41;;;18.33;100.00
55679;BME280;41573;51.446;-2.018;2022-08-16T09:23:35;99885.09;;;18.36;100.00
55679;BME280;41573;51.446;-2.018;2022-08-16T09:26:05;99895.56;;;18.39;100.00
55679;BME280;41573;51.446;-2.018;2022-08-16T09:28:35;99896.94;;;18.43;100.00
55679;BME280;41573;51.446;-2.018;2022-08-16T09:31:02;99895.75;;;18.46;100.00
55679;BME280;41573;51.446;-2.018;2022-08-16T09:33:28;99905.53;;;18.47;100.00
55679;BME280;41573;51.446;-2.018;2022-08-16T09:35:53;99901.69;;;18.50;100.00
55679;BME280;41573;51.446;-2.018;2022-08-16T09:38:19;99899.00;;;18.50;100.00
55679;BME280;41573;51.446;-2.018;2022-08-16T09:40:46;99898.66;;;18.53;100.00
55679;BME280;41573;51.446;-2.018;2022-08-16T09:43:14;99906.75;;;18.53;100.00
55679;BME280;41573;51.446;-2.018;2022-08-16T09:45:40;99910.66;;;18.58;100.00
55679;BME280;41573;51.446;-2.018;2022-08-16T09:48:09;99903.25;;;18.60;100.00
55679;BME280;41573;51.446;-2.018;2022-08-16T09:50:35;99899.75;;;18.68;100.00
55679;BME280;41573;51.446;-2.018;2022-08-16T09:53:03;99903.47;;;18.75;100.00
55679;BME280;41573;51.446;-2.018;2022-08-16T09:55:29;99905.03;;;18.78;100.00
55679;BME280;41573;51.446;-2.018;2022-08-16T09:57:55;99905.75;;;18.88;100.00
55679;BME280;41573;51.446;-2.018;2022-08-16T10:00:22;99915.38;;;18.91;100.00
55679;BME280;41573;51.446;-2.018;2022-08-16T10:02:48;99916.22;;;18.91;100.00
55679;BME280;41573;51.446;-2.018;2022-08-16T10:05:17;99909.81;;;18.92;100.00
55679;BME280;41573;51.446;-2.018;2022-08-16T10:07:43;99915.06;;;18.94;100.00
55679;BME280;41573;51.446;-2.018;2022-08-16T10:10:12;99910.50;;;18.94;100.00
55679;BME280;41573;51.446;-2.018;2022-08-16T10:12:37;99916.75;;;18.95;100.00
55679;BME280;41573;51.446;-2.018;2022-08-16T10:15:21;99919.13;;;18.98;100.00
55679;BME280;41573;51.446;-2.018;2022-08-16T10:17:52;99917.78;;;19.02;100.00
55679;BME280;41573;51.446;-2.018;2022-08-16T10:20:18;99907.31;;;18.99;100.00
55679;BME280;41573;51.446;-2.018;2022-08-16T10:22:44;99908.00;;;19.01;100.00
55679;BME280;41573;51.446;-2.018;2022-08-16T10:25:09;99908.34;;;19.06;100.00
55679;BME280;41573;51.446;-2.018;2022-08-16T10:27:35;99897.41;;;19.08;100.00
55679;BME280;41573;51.446;-2.018;2022-08-16T10:30:03;99897.72;;;19.13;100.00
55679;BME280;41573;51.446;-2.018;2022-08-16T10:32:29;99896.38;;;19.17;100.00
55679;BME280;41573;51.446;-2.018;2022-08-16T10:34:55;99894.22;;;19.21;100.00
55679;BME280;41573;51.446;-2.018;2022-08-16T10:37:20;99897.91;;;19.20;100.00
55679;BME280;41573;51.446;-2.018;2022-08-16T10:39:46;99897.75;;;19.21;100.00
55679;BME280;41573;51.446;-2.018;2022-08-16T10:42:11;99899.63;;;19.21;100.00
55679;BME280;41573;51.446;-2.018;2022-08-16T10:44:37;99904.69;;;19.24;100.00
55679;BME280;41573;51.446;-2.018;2022-08-16T10:47:03;99903.34;;;19.28;100.00
55679;BME280;41573;51.446;-2.018;2022-08-16T10:49:28;99904.88;;;19.31;100.00
55679;BME280;41573;51.446;-2.018;2022-08-16T10:51:54;99893.22;;;19.30;100.00
55679;BME280;41573;51.446;-2.018;2022-08-16T10:54:20;99894.06;;;19.31;100.00
55679;BME280;41573;51.446;-2.018;2022-08-16T10:56:47;99892.22;;;19.31;100.00
55679;BME280;41573;51.446;-2.018;2022-08-16T10:59:13;99893.22;;;19.30;100.00
55679;BME280;41573;51.446;-2.018;2022-08-16T11:01:38;99898.31;;;19.33;100.00
55679;BME280;41573;51.446;-2.018;2022-08-16T11:04:05;99899.97;;;19.34;100.00
55679;BME280;41573;51.446;-2.018;2022-08-16T11:06:32;99899.97;;;19.34;100.00
55679;BME280;41573;51.446;-2.018;2022-08-16T11:08:57;99894.06;;;19.31;100.00
55679;BME280;41573;51.446;-2.018;2022-08-16T11:11:23;99894.06;;;19.31;100.00
55679;BME280;41573;51.446;-2.018;2022-08-16T11:13:50;99893.22;;;19.30;100.00
55679;BME280;41573;51.446;-2.018;2022-08-16T11:16:17;99888.84;;;19.29;100.00
55679;BME280;41573;51.446;-2.018;2022-08-16T11:18:43;99884.09;;;19.31;100.00
55679;BME280;41573;51.446;-2.018;2022-08-16T11:21:09;99887.50;;;19.33;100.00
55679;BME280;41573;51.446;-2.018;2022-08-16T11:23:34;99892.22;;;19.39;100.00
55679;BME280;41573;51.446;-2.018;2022-08-16T11:26:00;99882.78;;;19.43;100.00
55679;BME280;41573;51.446;-2.018;2022-08-16T11:28:26;99885.97;;;19.47;100.00
55679;BME280;41573;51.446;-2.018;2022-08-16T11:30:51;99879.22;;;19.51;100.00
55679;BME280;41573;51.446;-2.018;2022-08-16T11:33:17;99878.41;;;19.59;100.00
55679;BME280;41573;51.446;-2.018;2022-08-16T11:35:42;99889.53;;;19.64;100.00
55679;BME280;41573;51.446;-2.018;2022-08-16T11:38:16;99877.72;;;19.65;100.00
55679;BME280;41573;51.446;-2.018;2022-08-16T11:43:17;99883.31;;;19.72;100.00
55679;BME280;41573;51.446;-2.018;2022-08-16T11:45:46;99883.13;;;19.73;100.00
55679;BME280;41573;51.446;-2.018;2022-08-16T11:48:11;99883.34;;;19.80;100.00
55679;BME280;41573;51.446;-2.018;2022-08-16T11:50:40;99875.06;;;19.82;100.00
55679;BME280;41573;51.446;-2.018;2022-08-16T11:53:06;99870.16;;;19.85;100.00
55679;BME280;41573;51.446;-2.018;2022-08-16T11:55:32;99876.72;;;19.91;100.00
55679;BME280;41573;51.446;-2.018;2022-08-16T11:57:59;99875.38;;;19.95;100.00
55679;BME280;41573;51.446;-2.018;2022-08-16T12:00:25;99873.84;;;20.01;100.00
55679;BME280;41573;51.446;-2.018;2022-08-16T12:02:51;99882.78;;;20.09;100.00
55679;BME280;41573;51.446;-2.018;2022-08-16T12:05:16;99882.13;;;20.15;100.00
55679;BME280;41573;51.446;-2.018;2022-08-16T12:07:42;99886.13;;;20.20;100.00
55679;BME280;41573;51.446;-2.018;2022-08-16T12:10:11;99898.81;;;20.27;100.00
55679;BME280;41573;51.446;-2.018;2022-08-16T12:12:39;99884.59;;;20.33;100.00
55679;BME280;41573;51.446;-2.018;2022-08-16T12:15:05;99888.09;;;20.42;100.00
55679;BME280;41573;51.446;-2.018;2022-08-16T12:17:31;99892.47;;;20.52;100.00
55679;BME280;41573;51.446;-2.018;2022-08-16T12:19:56;99891.41;;;20.61;100.00
55679;BME280;41573;51.446;-2.018;2022-08-16T12:22:23;99886.19;;;20.67;100.00
55679;BME280;41573;51.446;-2.018;2022-08-16T12:24:49;99885.69;;;20.64;100.00
55679;BME280;41573;51.446;-2.018;2022-08-16T12:27:15;99885.88;;;20.62;100.00
55679;BME280;41573;51.446;-2.018;2022-08-16T12:29:41;99886.88;;;20.61;100.00
55679;BME280;41573;51.446;-2.018;2022-08-16T12:32:06;99879.94;;;20.59;100.00
55679;BME280;41573;51.446;-2.018;2022-08-16T12:34:31;99877.25;;;20.59;100.00
55679;BME280;41573;51.446;-2.018;2022-08-16T12:36:58;99878.06;;;20.59;100.00
55679;BME280;41573;51.446;-2.018;2022-08-16T12:39:28;99877.25;;;20.59;100.00
55679;BME280;41573;51.446;-2.018;2022-08-16T12:41:53;99876.88;;;20.62;100.00
55679;BME280;41573;51.446;-2.018;2022-08-16T12:44:20;99870.13;;;20.66;100.00